Time,TemperatureF,DewpointF,PressureIn,WindDirection,WindDirectionDegrees,WindSpeedMPH,WindSpeedGustMPH,Humidity,HourlyPrecipIn,Conditions,Clouds,dailyrainin,SoftwareType,DateUTC
2013-01-24 00:03:00,34.4,29.5,31.17,ENE,73,0.0,0.0,82,0.00,,---,0.00,VWS V14.01,2013-01-24 08:03:00,
2013-01-24 00:08:00,34.4,29.5,31.17,ENE,74,0.0,0.0,82,0.00,,---,0.00,VWS V14.01,2013-01-24 08:08:00,
2013-01-24 00:13:00,34.3,29.7,31.17,East,86,0.0,0.0,83,0.00,,---,0.00,VWS V14.01,2013-01-24 08:13:00,
2013-01-24 00:18:00,34.3,29.7,31.17,East,80,0.0,0.0,83,0.00,,---,0.00,VWS V14.01,2013-01-24 08:18:00,
2013-01-24 00:23:00,34.3,29.7,31.17,East,89,0.0,0.0,83,0.00,,---,0.00,VWS V14.01,2013-01-24 08:23:00,
2013-01-24 00:28:00,34.3,29.7,31.17,East,88,0.0,0.0,83,0.00,,---,0.00,VWS V14.01,2013-01-24 08:28:00,
2013-01-24 00:33:00,34.3,29.7,31.17,East,86,0.0,0.0,83,0.00,,---,0.00,VWS V14.01,2013-01-24 08:33:00,
2013-01-24 00:38:00,34.3,29.7,31.17,East,86,0.0,0.0,83,0.00,,---,0.00,VWS V14.01,2013-01-24 08:38:00,
2013-01-24 00:43:00,34.3,29.7,31.17,East,86,0.0,0.0,83,0.00,,---,0.00,VWS V14.01,2013-01-24 08:43:00,
2013-01-24 00:48:00,34.3,29.7,31.17,East,94,0.0,0.0,83,0.00,,---,0.00,VWS V14.01,2013-01-24 08:48:00,
2013-01-24 00:53:00,34.1,29.5,31.17,East,101,0.0,0.0,83,0.00,,---,0.00,VWS V14.01,2013-01-24 08:53:00,
2013-01-24 00:58:00,34.1,29.5,31.17,ESE,104,0.0,0.0,83,0.00,,---,0.00,VWS V14.01,2013-01-24 08:58:00,
2013-01-24 01:03:00,34.0,29.4,31.17,ESE,103,0.0,0.0,83,0.00,,---,0.00,VWS V14.01,2013-01-24 09:03:00,
2013-01-24 01:08:00,34.0,29.4,31.15,East,101,0.0,0.0,83,0.00,,---,0.00,VWS V14.01,2013-01-24 09:08:00,
2013-01-24 01:13:00,33.8,29.2,31.15,East,92,0.0,0.0,83,0.00,,---,0.00,VWS V14.01,2013-01-24 09:13:00,
2013-01-24 01:19:00,33.8,29.2,31.15,East,92,0.0,0.0,83,0.00,,---,0.00,VWS V14.01,2013-01-24 09:19:00,
2013-01-24 01:23:00,33.8,29.2,31.15,East,94,0.0,0.0,83,0.00,,---,0.00,VWS V14.01,2013-01-24 09:23:00,
2013-01-24 01:28:00,33.7,29.1,31.15,ESE,105,0.0,0.0,83,0.00,,---,0.00,VWS V14.01,2013-01-24 09:28:00,
2013-01-24 01:33:00,33.8,29.2,31.15,ESE,121,0.0,0.0,83,0.00,,---,0.00,VWS V14.01,2013-01-24 09:33:00,
2013-01-24 01:38:00,33.7,29.4,31.15,ESE,106,0.0,0.0,84,0.00,,---,0.00,VWS V14.01,2013-01-24 09:38:00,
2013-01-24 01:44:00,33.7,29.4,31.15,ESE,111,0.0,0.0,84,0.00,,---,0.00,VWS V14.01,2013-01-24 09:44:00,
2013-01-24 01:49:00,33.7,29.4,31.15,SE,145,0.0,0.0,84,0.00,,---,0.00,VWS V14.01,2013-01-24 09:49:00,
2013-01-24 01:54:00,33.7,29.4,31.15,ESE,113,0.0,0.0,84,0.00,,---,0.00,VWS V14.01,2013-01-24 09:54:00,
2013-01-24 01:59:00,33.5,29.2,31.15,East,94,0.0,0.0,84,0.00,,---,0.00,VWS V14.01,2013-01-24 09:59:00,
2013-01-24 02:04:00,33.4,29.1,31.15,East,90,0.0,0.0,84,0.00,,---,0.00,VWS V14.01,2013-01-24 10:04:00,
2013-01-24 02:09:00,33.4,29.4,31.13,ESE,108,0.0,0.0,85,0.00,,---,0.00,VWS V14.01,2013-01-24 10:09:00,
2013-01-24 02:14:00,33.2,29.2,31.13,ESE,103,0.0,0.0,85,0.00,,---,0.00,VWS V14.01,2013-01-24 10:14:00,
2013-01-24 02:19:00,33.2,29.2,31.13,ESE,103,0.0,0.0,85,0.00,,---,0.00,VWS V14.01,2013-01-24 10:19:00,
2013-01-24 02:24:00,33.1,29.1,31.13,ESE,121,0.0,0.0,85,0.00,,---,0.00,VWS V14.01,2013-01-24 10:24:00,
2013-01-24 02:30:00,33.1,29.1,31.13,East,92,0.0,0.0,85,0.00,,---,0.00,VWS V14.01,2013-01-24 10:30:00,
2013-01-24 02:35:00,33.1,29.1,31.13,ESE,107,0.0,0.0,85,0.00,,---,0.00,VWS V14.01,2013-01-24 10:35:00,
2013-01-24 02:40:00,32.9,28.9,31.13,ESE,106,0.0,0.0,85,0.00,,---,0.00,VWS V14.01,2013-01-24 10:40:00,
2013-01-24 02:45:00,32.9,28.9,31.13,East,100,0.0,0.0,85,0.00,,---,0.00,VWS V14.01,2013-01-24 10:45:00,
2013-01-24 02:50:00,32.9,29.2,31.13,East,88,0.0,0.0,86,0.00,,---,0.00,VWS V14.01,2013-01-24 10:50:00,
2013-01-24 02:55:00,32.9,29.2,31.13,East,88,0.0,0.0,86,0.00,,---,0.00,VWS V14.01,2013-01-24 10:55:00,
2013-01-24 03:00:00,32.9,29.2,31.13,East,94,0.0,0.0,86,0.00,,---,0.00,VWS V14.01,2013-01-24 11:00:00,
2013-01-24 03:05:00,32.9,28.9,31.14,East,98,0.0,0.0,85,0.00,,---,0.00,VWS V14.01,2013-01-24 11:05:00,
2013-01-24 03:10:00,32.9,28.9,31.14,East,98,0.0,0.0,85,0.00,,---,0.00,VWS V14.01,2013-01-24 11:10:00,
2013-01-24 03:15:00,32.9,28.9,31.14,East,92,0.0,0.0,85,0.00,,---,0.00,VWS V14.01,2013-01-24 11:15:00,
2013-01-24 03:20:00,32.9,28.9,31.14,East,92,0.0,0.0,85,0.00,,---,0.00,VWS V14.01,2013-01-24 11:20:00,
2013-01-24 03:25:00,32.9,28.9,31.14,ESE,109,0.0,0.0,85,0.00,,---,0.00,VWS V14.01,2013-01-24 11:25:00,
2013-01-24 03:31:00,32.9,28.9,31.14,SE,126,0.0,0.0,85,0.00,,---,0.00,VWS V14.01,2013-01-24 11:31:00,
2013-01-24 03:36:00,32.9,28.9,31.14,ESE,115,0.0,0.0,85,0.00,,---,0.00,VWS V14.01,2013-01-24 11:36:00,
2013-01-24 03:41:00,32.9,28.9,31.14,SE,146,0.0,0.0,85,0.00,,---,0.00,VWS V14.01,2013-01-24 11:41:00,
2013-01-24 03:46:00,32.9,28.9,31.14,SSE,155,0.0,0.0,85,0.00,,---,0.00,VWS V14.01,2013-01-24 11:46:00,
2013-01-24 03:51:00,32.9,29.2,31.14,SSE,155,0.0,0.0,86,0.00,,---,0.00,VWS V14.01,2013-01-24 11:51:00,
2013-01-24 03:56:00,33.1,29.4,31.14,SSE,154,0.0,0.0,86,0.00,,---,0.00,VWS V14.01,2013-01-24 11:56:00,
2013-01-24 04:01:00,33.1,29.4,31.14,SSE,167,0.0,0.0,86,0.00,,---,0.00,VWS V14.01,2013-01-24 12:01:00,
2013-01-24 04:06:00,33.1,29.7,31.14,SSE,152,0.0,0.0,87,0.00,,---,0.00,VWS V14.01,2013-01-24 12:06:00,
2013-01-24 04:11:00,33.1,29.7,31.14,SSE,152,0.0,0.0,87,0.00,,---,0.00,VWS V14.01,2013-01-24 12:11:00,
2013-01-24 04:16:00,33.2,30.0,31.14,SSE,153,0.0,0.0,88,0.00,,---,0.00,VWS V14.01,2013-01-24 12:16:00,
2013-01-24 04:21:00,33.2,30.0,31.14,SE,145,0.0,0.0,88,0.00,,---,0.00,VWS V14.01,2013-01-24 12:21:00,
2013-01-24 04:26:00,33.1,29.9,31.14,SSE,155,0.0,0.0,88,0.00,,---,0.00,VWS V14.01,2013-01-24 12:26:00,
2013-01-24 04:32:00,33.1,29.9,31.14,SSE,150,0.0,0.0,88,0.00,,---,0.00,VWS V14.01,2013-01-24 12:32:00,
2013-01-24 04:37:00,33.1,29.9,31.14,SE,146,0.0,0.0,88,0.00,,---,0.00,VWS V14.01,2013-01-24 12:37:00,
2013-01-24 04:42:00,33.1,29.9,31.14,SSE,154,0.0,0.0,88,0.00,,---,0.00,VWS V14.01,2013-01-24 12:42:00,
2013-01-24 04:47:00,33.1,29.9,31.14,SSE,159,0.0,0.0,88,0.00,,---,0.00,VWS V14.01,2013-01-24 12:47:00,
2013-01-24 04:52:00,33.1,30.2,31.14,South,169,0.0,0.0,89,0.00,,---,0.00,VWS V14.01,2013-01-24 12:52:00,
2013-01-24 04:57:00,33.1,30.2,31.14,SSE,163,0.0,0.0,89,0.00,,---,0.00,VWS V14.01,2013-01-24 12:57:00,
2013-01-24 05:02:00,32.9,30.0,31.14,SSE,163,0.0,0.0,89,0.00,,---,0.00,VWS V14.01,2013-01-24 13:02:00,
2013-01-24 05:07:00,32.9,30.0,31.13,South,170,0.0,0.0,89,0.00,,---,0.00,VWS V14.01,2013-01-24 13:07:00,
2013-01-24 05:12:00,32.9,30.0,31.13,SSE,164,0.0,0.0,89,0.00,,---,0.00,VWS V14.01,2013-01-24 13:12:00,
2013-01-24 05:17:00,32.9,30.0,31.13,SE,144,0.0,0.0,89,0.00,,---,0.00,VWS V14.01,2013-01-24 13:17:00,
2013-01-24 05:22:00,32.9,30.3,31.13,SSE,165,0.0,0.0,90,0.00,,---,0.00,VWS V14.01,2013-01-24 13:22:00,
2013-01-24 05:28:00,32.9,30.3,31.13,South,182,0.0,0.0,90,0.00,,---,0.00,VWS V14.01,2013-01-24 13:28:00,
2013-01-24 05:33:00,32.9,30.3,31.13,SSE,161,0.0,0.0,90,0.00,,---,0.00,VWS V14.01,2013-01-24 13:33:00,
2013-01-24 05:38:00,32.9,30.3,31.13,SSE,165,0.0,0.0,90,0.00,,---,0.00,VWS V14.01,2013-01-24 13:38:00,
2013-01-24 05:43:00,32.9,30.3,31.13,SSE,166,0.0,0.0,90,0.00,,---,0.00,VWS V14.01,2013-01-24 13:43:00,
2013-01-24 05:48:00,32.8,30.2,31.13,SSE,159,0.0,0.0,90,0.00,,---,0.00,VWS V14.01,2013-01-24 13:48:00,
2013-01-24 05:53:00,32.9,30.3,31.13,SSE,152,0.0,0.0,90,0.00,,---,0.00,VWS V14.01,2013-01-24 13:53:00,
2013-01-24 05:58:00,32.9,30.3,31.13,SSE,151,0.0,0.0,90,0.00,,---,0.00,VWS V14.01,2013-01-24 13:58:00,
2013-01-24 06:03:00,32.9,30.3,31.13,SSE,151,0.0,0.0,90,0.00,,---,0.00,VWS V14.01,2013-01-24 14:03:00,
2013-01-24 06:08:00,32.8,30.2,31.12,SSE,151,0.0,0.0,90,0.00,,---,0.00,VWS V14.01,2013-01-24 14:08:00,
2013-01-24 06:13:00,32.8,30.2,31.12,SSE,152,0.0,0.0,90,0.00,,---,0.00,VWS V14.01,2013-01-24 14:13:00,
2013-01-24 06:18:00,32.8,30.2,31.12,SSE,161,0.0,0.0,90,0.00,,---,0.00,VWS V14.01,2013-01-24 14:18:00,
2013-01-24 06:23:00,32.8,30.5,31.12,SSE,161,0.0,0.0,91,0.00,,---,0.00,VWS V14.01,2013-01-24 14:23:00,
2013-01-24 06:28:00,32.8,30.5,31.12,South,173,0.0,0.0,91,0.00,,---,0.00,VWS V14.01,2013-01-24 14:28:00,
2013-01-24 06:33:00,32.8,30.5,31.12,SSW,192,0.0,0.0,91,0.00,,---,0.00,VWS V14.01,2013-01-24 14:33:00,
2013-01-24 06:39:00,32.8,30.5,31.12,South,188,0.0,0.0,91,0.00,,---,0.00,VWS V14.01,2013-01-24 14:39:00,
2013-01-24 06:44:00,32.8,30.5,31.12,SSE,168,0.0,0.0,91,0.00,,---,0.00,VWS V14.01,2013-01-24 14:44:00,
2013-01-24 06:49:00,32.9,30.6,31.12,South,189,0.0,0.0,91,0.00,,---,0.00,VWS V14.01,2013-01-24 14:49:00,
2013-01-24 06:54:00,32.9,30.6,31.12,SSW,211,0.0,0.0,91,0.00,,---,0.00,VWS V14.01,2013-01-24 14:54:00,
2013-01-24 06:59:00,32.9,30.6,31.12,SW,217,0.0,0.0,91,0.00,,---,0.00,VWS V14.01,2013-01-24 14:59:00,
2013-01-24 07:04:00,32.9,30.6,31.12,SSW,206,0.0,0.0,91,0.00,,---,0.00,VWS V14.01,2013-01-24 15:04:00,
2013-01-24 07:09:00,32.9,30.6,31.12,SSW,196,0.0,0.0,91,0.00,,---,0.00,VWS V14.01,2013-01-24 15:09:00,
2013-01-24 07:15:00,32.9,30.6,31.12,South,176,0.0,0.0,91,0.00,,---,0.00,VWS V14.01,2013-01-24 15:15:00,
2013-01-24 07:20:00,32.9,30.6,31.12,SSE,148,0.0,0.0,91,0.00,,---,0.00,VWS V14.01,2013-01-24 15:20:00,
2013-01-24 07:25:00,33.1,30.8,31.12,SE,140,0.0,0.0,91,0.00,,---,0.00,VWS V14.01,2013-01-24 15:25:00,
2013-01-24 07:30:00,33.1,30.8,31.12,SE,144,0.0,0.0,91,0.00,,---,0.00,VWS V14.01,2013-01-24 15:30:00,
2013-01-24 07:35:00,33.1,30.8,31.12,SE,142,0.0,0.0,91,0.00,,---,0.00,VWS V14.01,2013-01-24 15:35:00,
2013-01-24 07:40:00,33.1,30.8,31.12,South,176,0.0,0.0,91,0.00,,---,0.00,VWS V14.01,2013-01-24 15:40:00,
2013-01-24 07:45:00,33.1,30.8,31.12,South,183,0.0,0.0,91,0.00,,---,0.00,VWS V14.01,2013-01-24 15:45:00,
2013-01-24 07:50:00,33.1,31.0,31.12,South,184,0.0,0.0,92,0.00,,---,0.00,VWS V14.01,2013-01-24 15:50:00,
2013-01-24 07:55:00,33.1,31.0,31.12,South,190,0.0,0.0,92,0.00,,---,0.00,VWS V14.01,2013-01-24 15:55:00,
2013-01-24 08:00:00,33.2,31.1,31.12,South,180,0.0,0.0,92,0.00,,---,0.00,VWS V14.01,2013-01-24 16:00:00,
2013-01-24 08:05:00,33.4,31.3,31.11,South,184,0.0,0.0,92,0.00,,---,0.00,VWS V14.01,2013-01-24 16:05:00,
2013-01-24 08:10:00,33.5,31.4,31.12,South,182,0.0,0.0,92,0.00,,---,0.00,VWS V14.01,2013-01-24 16:10:00,
2013-01-24 08:16:00,33.5,31.4,31.12,South,189,0.0,0.0,92,0.00,,---,0.00,VWS V14.01,2013-01-24 16:16:00,
2013-01-24 08:21:00,33.5,31.4,31.12,SSW,196,0.0,0.0,92,0.00,,---,0.00,VWS V14.01,2013-01-24 16:21:00,
2013-01-24 08:26:00,33.5,31.4,31.12,SSW,198,0.0,0.0,92,0.00,,---,0.00,VWS V14.01,2013-01-24 16:26:00,
2013-01-24 08:31:00,33.7,31.6,31.12,SSW,196,0.0,0.0,92,0.00,,---,0.00,VWS V14.01,2013-01-24 16:31:00,
2013-01-24 08:36:00,33.7,31.6,31.12,South,175,0.0,0.0,92,0.00,,---,0.00,VWS V14.01,2013-01-24 16:36:00,
2013-01-24 08:41:00,33.8,31.7,31.12,South,179,0.0,0.0,92,0.00,,---,0.00,VWS V14.01,2013-01-24 16:41:00,
2013-01-24 08:46:00,34.0,31.9,31.12,South,179,0.0,0.0,92,0.00,,---,0.00,VWS V14.01,2013-01-24 16:46:00,
2013-01-24 08:51:00,34.1,32.0,31.12,South,178,0.0,0.0,92,0.00,,---,0.00,VWS V14.01,2013-01-24 16:51:00,
2013-01-24 08:56:00,34.3,32.2,31.12,South,171,0.0,0.0,92,0.00,,---,0.00,VWS V14.01,2013-01-24 16:56:00,
2013-01-24 09:01:00,34.6,32.5,31.12,South,171,0.0,0.0,92,0.00,,---,0.00,VWS V14.01,2013-01-24 17:01:00,
2013-01-24 09:06:00,34.7,32.6,31.12,SSE,163,0.0,0.0,92,0.00,,---,0.00,VWS V14.01,2013-01-24 17:06:00,
2013-01-24 09:11:00,35.2,33.1,31.12,SSE,161,0.0,0.0,92,0.00,,---,0.00,VWS V14.01,2013-01-24 17:11:00,
2013-01-24 09:17:00,35.3,33.2,31.12,SSE,165,0.0,0.0,92,0.00,,---,0.00,VWS V14.01,2013-01-24 17:17:00,
2013-01-24 09:22:00,35.5,33.7,31.13,SSE,165,0.0,0.0,93,0.00,,---,0.00,VWS V14.01,2013-01-24 17:22:00,
2013-01-24 09:27:00,35.8,34.0,31.13,South,171,0.0,0.0,93,0.00,,---,0.00,VWS V14.01,2013-01-24 17:27:00,
2013-01-24 09:32:00,36.0,34.2,31.13,SSE,167,0.0,0.0,93,0.00,,---,0.00,VWS V14.01,2013-01-24 17:32:00,
2013-01-24 09:37:00,36.2,34.4,31.13,SSW,199,0.0,0.0,93,0.00,,---,0.00,VWS V14.01,2013-01-24 17:37:00,
2013-01-24 09:42:00,36.3,34.5,31.13,South,171,0.0,0.0,93,0.00,,---,0.00,VWS V14.01,2013-01-24 17:42:00,
2013-01-24 09:47:00,36.6,34.8,31.13,South,178,0.0,0.0,93,0.00,,---,0.00,VWS V14.01,2013-01-24 17:47:00,
2013-01-24 09:52:00,36.8,35.0,31.13,SSW,204,0.0,0.0,93,0.00,,---,0.00,VWS V14.01,2013-01-24 17:52:00,
2013-01-24 09:57:00,36.9,34.8,31.13,South,180,0.0,0.0,92,0.00,,---,0.00,VWS V14.01,2013-01-24 17:57:00,
2013-01-24 10:02:00,37.2,35.4,31.13,SE,132,0.0,0.0,93,0.00,,---,0.00,VWS V14.01,2013-01-24 18:02:00,
2013-01-24 10:08:00,37.8,35.7,31.13,South,169,0.0,0.0,92,0.00,,---,0.00,VWS V14.01,2013-01-24 18:08:00,
2013-01-24 10:13:00,38.0,35.9,31.13,WSW,241,0.0,0.0,92,0.00,,---,0.00,VWS V14.01,2013-01-24 18:13:00,
2013-01-24 10:18:00,38.3,35.9,31.13,South,183,0.0,0.0,91,0.01,,---,0.01,VWS V14.01,2013-01-24 18:18:00,
2013-01-24 10:23:00,38.8,36.1,31.14,SW,230,0.0,0.0,90,0.01,,---,0.01,VWS V14.01,2013-01-24 18:23:00,
2013-01-24 10:28:00,39.1,36.1,31.14,SSW,195,0.0,0.0,89,0.01,,---,0.01,VWS V14.01,2013-01-24 18:28:00,
2013-01-24 10:33:00,39.5,35.7,31.14,South,182,0.0,0.0,86,0.01,,---,0.01,VWS V14.01,2013-01-24 18:33:00,
2013-01-24 10:38:00,39.8,35.7,31.14,South,182,0.0,0.0,85,0.01,,---,0.01,VWS V14.01,2013-01-24 18:38:00,
2013-01-24 10:43:00,39.9,35.2,31.14,SSW,200,0.0,0.0,83,0.01,,---,0.01,VWS V14.01,2013-01-24 18:43:00,
2013-01-24 10:48:00,40.2,35.2,31.14,SSW,213,0.0,0.0,82,0.01,,---,0.01,VWS V14.01,2013-01-24 18:48:00,
2013-01-24 10:53:00,40.5,35.1,31.15,SSW,200,0.0,0.0,81,0.01,,---,0.01,VWS V14.01,2013-01-24 18:53:00,
2013-01-24 10:58:00,40.8,34.8,31.15,SSW,203,0.0,0.0,79,0.01,,---,0.01,VWS V14.01,2013-01-24 18:58:00,
2013-01-24 11:04:00,41.1,35.1,31.15,SW,227,0.0,0.0,79,0.01,,---,0.01,VWS V14.01,2013-01-24 19:04:00,
2013-01-24 11:08:00,41.3,34.7,31.14,SSW,208,0.0,0.0,77,0.01,,---,0.01,VWS V14.01,2013-01-24 19:08:00,
2013-01-24 11:14:00,41.6,34.9,31.15,SW,225,0.0,0.0,77,0.01,,---,0.01,VWS V14.01,2013-01-24 19:14:00,
2013-01-24 11:19:00,41.9,34.2,31.15,SW,227,0.0,0.0,74,0.00,,---,0.01,VWS V14.01,2013-01-24 19:19:00,
2013-01-24 11:24:00,42.2,34.2,31.15,South,189,0.0,0.0,73,0.00,,---,0.01,VWS V14.01,2013-01-24 19:24:00,
2013-01-24 11:29:00,42.5,34.5,31.15,SW,218,0.0,0.0,73,0.00,,---,0.01,VWS V14.01,2013-01-24 19:29:00,
2013-01-24 11:34:00,42.8,34.1,31.15,SW,234,0.0,0.0,71,0.00,,---,0.01,VWS V14.01,2013-01-24 19:34:00,
2013-01-24 11:39:00,42.9,34.2,31.15,SSW,200,0.0,0.0,71,0.00,,---,0.01,VWS V14.01,2013-01-24 19:39:00,
2013-01-24 11:44:00,43.2,33.7,31.15,South,183,0.0,0.0,69,0.00,,---,0.01,VWS V14.01,2013-01-24 19:44:00,
2013-01-24 11:49:00,44.2,33.2,31.16,SW,226,0.0,0.0,65,0.00,,---,0.01,VWS V14.01,2013-01-24 19:49:00,
2013-01-24 11:54:00,44.6,33.2,31.16,South,183,0.0,0.0,64,0.00,,---,0.01,VWS V14.01,2013-01-24 19:54:00,
2013-01-24 11:59:00,44.6,34.0,31.16,SSW,205,0.0,0.0,66,0.00,,---,0.01,VWS V14.01,2013-01-24 19:59:00,
2013-01-24 12:04:00,44.6,34.0,31.16,SSW,213,0.0,0.0,66,0.00,,---,0.01,VWS V14.01,2013-01-24 20:04:00,
2013-01-24 12:09:00,44.3,33.7,31.16,South,183,0.0,0.0,66,0.00,,---,0.01,VWS V14.01,2013-01-24 20:09:00,
2013-01-24 12:14:00,44.5,33.9,31.16,SSW,200,0.0,0.0,66,0.00,,---,0.01,VWS V14.01,2013-01-24 20:14:00,
2013-01-24 12:20:00,44.2,34.3,31.16,South,181,0.0,0.0,68,0.00,,---,0.01,VWS V14.01,2013-01-24 20:20:00,
2013-01-24 12:25:00,44.1,33.9,31.16,SSW,196,0.0,0.0,67,0.00,,---,0.01,VWS V14.01,2013-01-24 20:25:00,
2013-01-24 12:30:00,44.1,34.2,31.16,SSW,211,0.0,0.0,68,0.00,,---,0.01,VWS V14.01,2013-01-24 20:30:00,
2013-01-24 12:35:00,44.2,34.3,31.16,SSW,197,0.0,0.0,68,0.00,,---,0.01,VWS V14.01,2013-01-24 20:35:00,
2013-01-24 12:40:00,44.9,34.2,31.16,SSW,192,0.0,0.0,66,0.00,,---,0.01,VWS V14.01,2013-01-24 20:40:00,
2013-01-24 12:45:00,45.5,33.2,31.16,SW,221,0.0,0.0,62,0.00,,---,0.01,VWS V14.01,2013-01-24 20:45:00,
2013-01-24 12:50:00,45.7,33.0,31.17,SW,217,0.0,0.0,61,0.00,,---,0.01,VWS V14.01,2013-01-24 20:50:00,
2013-01-24 12:55:00,45.5,33.7,31.17,SW,231,0.0,0.0,63,0.00,,---,0.01,VWS V14.01,2013-01-24 20:55:00,
2013-01-24 13:00:00,45.7,33.8,31.17,SW,221,0.0,0.0,63,0.00,,---,0.01,VWS V14.01,2013-01-24 21:00:00,
2013-01-24 13:05:00,45.7,33.4,31.16,SSW,213,0.0,0.0,62,0.00,,---,0.01,VWS V14.01,2013-01-24 21:05:00,
2013-01-24 13:10:00,45.7,33.4,31.16,SW,219,0.0,0.0,62,0.00,,---,0.01,VWS V14.01,2013-01-24 21:10:00,
2013-01-24 13:15:00,46.0,32.9,31.16,SW,215,0.0,0.0,60,0.00,,---,0.01,VWS V14.01,2013-01-24 21:15:00,
2013-01-24 13:20:00,45.7,32.6,31.16,SW,219,0.0,0.0,60,0.00,,---,0.01,VWS V14.01,2013-01-24 21:20:00,
2013-01-24 13:26:00,46.0,32.9,31.16,SW,234,0.0,0.0,60,0.00,,---,0.01,VWS V14.01,2013-01-24 21:26:00,
2013-01-24 13:31:00,45.8,32.7,31.16,SSW,196,0.0,0.0,60,0.00,,---,0.01,VWS V14.01,2013-01-24 21:31:00,
2013-01-24 13:36:00,46.2,32.7,31.16,SSW,204,0.0,0.0,59,0.00,,---,0.01,VWS V14.01,2013-01-24 21:36:00,
2013-01-24 13:41:00,46.2,32.7,31.16,WSW,242,0.0,0.0,59,0.00,,---,0.01,VWS V14.01,2013-01-24 21:41:00,
2013-01-24 13:46:00,46.2,32.7,31.16,SW,221,0.0,0.0,59,0.00,,---,0.01,VWS V14.01,2013-01-24 21:46:00,
2013-01-24 13:51:00,46.4,32.9,31.16,SSW,206,0.0,0.0,59,0.00,,---,0.01,VWS V14.01,2013-01-24 21:51:00,
2013-01-24 13:56:00,46.2,32.2,31.16,SSW,205,0.0,0.0,58,0.00,,---,0.01,VWS V14.01,2013-01-24 21:56:00,
2013-01-24 14:01:00,46.4,32.9,31.16,SW,220,0.0,0.0,59,0.00,,---,0.01,VWS V14.01,2013-01-24 22:01:00,
2013-01-24 14:07:00,46.7,32.7,31.17,SSW,211,0.0,0.0,58,0.00,,---,0.01,VWS V14.01,2013-01-24 22:07:00,
2013-01-24 14:12:00,46.5,32.5,31.17,SW,219,0.0,0.0,58,0.00,,---,0.01,VWS V14.01,2013-01-24 22:12:00,
2013-01-24 14:17:00,46.5,32.5,31.17,SW,236,0.0,0.0,58,0.00,,---,0.01,VWS V14.01,2013-01-24 22:17:00,
2013-01-24 14:22:00,46.2,32.2,31.16,South,184,0.0,0.0,58,0.00,,---,0.01,VWS V14.01,2013-01-24 22:22:00,
2013-01-24 14:27:00,46.1,32.2,31.16,SSW,201,0.0,0.0,58,0.00,,---,0.01,VWS V14.01,2013-01-24 22:27:00,
2013-01-24 14:32:00,46.0,32.5,31.16,SSW,197,0.0,0.0,59,0.00,,---,0.01,VWS V14.01,2013-01-24 22:32:00,
2013-01-24 14:37:00,46.1,32.2,31.16,SSW,204,0.0,0.0,58,0.00,,---,0.01,VWS V14.01,2013-01-24 22:37:00,
2013-01-24 14:42:00,46.1,32.2,31.16,South,188,0.0,0.0,58,0.00,,---,0.01,VWS V14.01,2013-01-24 22:42:00,
2013-01-24 14:47:00,46.1,32.2,31.16,SSW,211,0.0,0.0,58,0.00,,---,0.01,VWS V14.01,2013-01-24 22:47:00,
2013-01-24 14:52:00,46.1,32.2,31.16,SW,219,0.0,0.0,58,0.00,,---,0.01,VWS V14.01,2013-01-24 22:52:00,
2013-01-24 14:57:00,46.5,32.1,31.17,SW,221,0.0,0.0,57,0.00,,---,0.01,VWS V14.01,2013-01-24 22:57:00,
2013-01-24 15:02:00,46.4,32.0,31.16,South,188,0.0,0.0,57,0.00,,---,0.01,VWS V14.01,2013-01-24 23:02:00,
2013-01-24 15:08:00,46.5,32.1,31.17,SW,221,0.0,0.0,57,0.00,,---,0.01,VWS V14.01,2013-01-24 23:08:00,
2013-01-24 15:13:00,46.4,32.0,31.16,SSW,196,0.0,0.0,57,0.00,,---,0.01,VWS V14.01,2013-01-24 23:13:00,
2013-01-24 15:18:00,46.2,31.8,31.16,SSW,209,0.0,0.0,57,0.00,,---,0.01,VWS V14.01,2013-01-24 23:18:00,
2013-01-24 15:23:00,46.2,31.8,31.16,SSW,201,0.0,0.0,57,0.00,,---,0.01,VWS V14.01,2013-01-24 23:23:00,
2013-01-24 15:28:00,46.2,31.8,31.16,SSW,211,0.0,0.0,57,0.00,,---,0.01,VWS V14.01,2013-01-24 23:28:00,
2013-01-24 15:33:00,46.1,32.2,31.16,SW,217,0.0,0.0,58,0.00,,---,0.01,VWS V14.01,2013-01-24 23:33:00,
2013-01-24 15:38:00,46.1,32.2,31.16,SSW,198,0.0,0.0,58,0.00,,---,0.01,VWS V14.01,2013-01-24 23:38:00,
2013-01-24 15:43:00,46.1,32.2,31.16,SSW,196,0.0,0.0,58,0.00,,---,0.01,VWS V14.01,2013-01-24 23:43:00,
2013-01-24 15:48:00,46.1,32.2,31.16,SW,227,0.0,0.0,58,0.00,,---,0.01,VWS V14.01,2013-01-24 23:48:00,
2013-01-24 15:53:00,46.1,32.2,31.16,WSW,249,0.0,0.0,58,0.00,,---,0.01,VWS V14.01,2013-01-24 23:53:00,
2013-01-24 15:58:00,46.4,32.0,31.16,SW,217,0.0,0.0,57,0.00,,---,0.01,VWS V14.01,2013-01-24 23:58:00,
2013-01-24 16:03:00,46.8,32.4,31.17,SW,219,0.0,0.0,57,0.00,,---,0.01,VWS V14.01,2013-01-25 00:03:00,
2013-01-24 16:09:00,47.0,32.6,31.17,SSW,209,0.0,0.0,57,0.00,,---,0.01,VWS V14.01,2013-01-25 00:09:00,
2013-01-24 16:14:00,46.8,32.4,31.17,SW,217,0.0,0.0,57,0.00,,---,0.01,VWS V14.01,2013-01-25 00:14:00,
2013-01-24 16:19:00,46.8,32.4,31.17,SSW,194,0.0,0.0,57,0.00,,---,0.01,VWS V14.01,2013-01-25 00:19:00,
2013-01-24 16:24:00,46.5,32.5,31.17,SSW,213,0.0,0.0,58,0.00,,---,0.01,VWS V14.01,2013-01-25 00:24:00,
2013-01-24 16:29:00,46.5,32.1,31.17,SW,221,0.0,0.0,57,0.00,,---,0.01,VWS V14.01,2013-01-25 00:29:00,
2013-01-24 16:34:00,46.1,32.6,31.16,SSW,203,0.0,0.0,59,0.00,,---,0.01,VWS V14.01,2013-01-25 00:34:00,
2013-01-24 16:39:00,46.1,32.6,31.16,SW,219,0.0,0.0,59,0.00,,---,0.01,VWS V14.01,2013-01-25 00:39:00,
2013-01-24 16:44:00,46.0,32.5,31.16,SSW,205,0.0,0.0,59,0.00,,---,0.01,VWS V14.01,2013-01-25 00:44:00,
2013-01-24 16:49:00,45.8,32.3,31.16,SW,216,0.0,0.0,59,0.00,,---,0.01,VWS V14.01,2013-01-25 00:49:00,
2013-01-24 16:54:00,45.7,32.2,31.16,SSW,204,0.0,0.0,59,0.00,,---,0.01,VWS V14.01,2013-01-25 00:54:00,
2013-01-24 16:59:00,45.4,31.9,31.16,SSW,201,0.0,0.0,59,0.00,,---,0.01,VWS V14.01,2013-01-25 00:59:00,
2013-01-24 17:05:00,45.1,32.1,31.16,SW,220,0.0,0.0,60,0.00,,---,0.01,VWS V14.01,2013-01-25 01:05:00,
2013-01-24 17:10:00,45.1,32.1,31.16,SW,217,0.0,0.0,60,0.00,,---,0.01,VWS V14.01,2013-01-25 01:10:00,
2013-01-24 17:15:00,45.1,32.1,31.16,SSW,198,0.0,0.0,60,0.00,,---,0.01,VWS V14.01,2013-01-25 01:15:00,
2013-01-24 17:20:00,44.6,32.0,31.16,SSW,202,0.0,0.0,61,0.00,,---,0.01,VWS V14.01,2013-01-25 01:20:00,
2013-01-24 17:25:00,44.9,31.9,31.16,SSW,205,0.0,0.0,60,0.00,,---,0.01,VWS V14.01,2013-01-25 01:25:00,
2013-01-24 17:30:00,44.6,32.0,31.16,South,188,0.0,0.0,61,0.00,,---,0.01,VWS V14.01,2013-01-25 01:30:00,
2013-01-24 17:35:00,44.5,32.3,31.16,SSW,192,0.0,0.0,62,0.00,,---,0.01,VWS V14.01,2013-01-25 01:35:00,
2013-01-24 17:40:00,44.2,32.4,31.15,SSW,198,0.0,0.0,63,0.00,,---,0.01,VWS V14.01,2013-01-25 01:40:00,
2013-01-24 17:45:00,44.1,32.7,31.15,SSW,201,0.0,0.0,64,0.00,,---,0.01,VWS V14.01,2013-01-25 01:45:00,
2013-01-24 17:50:00,44.2,32.4,31.15,SW,223,0.0,0.0,63,0.00,,---,0.01,VWS V14.01,2013-01-25 01:50:00,
2013-01-24 17:55:00,44.3,32.9,31.15,SSW,211,0.0,0.0,64,0.00,,---,0.01,VWS V14.01,2013-01-25 01:55:00,
2013-01-24 18:00:00,44.3,32.9,31.15,WSW,239,0.0,0.0,64,0.00,,---,0.01,VWS V14.01,2013-01-25 02:00:00,
2013-01-24 18:05:00,44.5,33.1,31.16,SW,229,0.0,0.0,64,0.00,,---,0.01,VWS V14.01,2013-01-25 02:05:00,
2013-01-24 18:11:00,44.5,33.1,31.16,SW,220,0.0,0.0,64,0.00,,---,0.01,VWS V14.01,2013-01-25 02:11:00,
2013-01-24 18:16:00,44.3,32.9,31.15,SW,218,0.0,0.0,64,0.00,,---,0.01,VWS V14.01,2013-01-25 02:16:00,
2013-01-24 18:21:00,44.3,32.9,31.15,SW,227,0.0,0.0,64,0.00,,---,0.01,VWS V14.01,2013-01-25 02:21:00,
2013-01-24 18:26:00,44.2,32.8,31.15,SW,220,0.0,0.0,64,0.00,,---,0.01,VWS V14.01,2013-01-25 02:26:00,
2013-01-24 18:31:00,44.1,33.1,31.15,SW,227,0.0,0.0,65,0.00,,---,0.01,VWS V14.01,2013-01-25 02:31:00,
2013-01-24 18:36:00,44.1,33.1,31.15,SW,232,0.0,0.0,65,0.00,,---,0.01,VWS V14.01,2013-01-25 02:36:00,
2013-01-24 18:41:00,43.9,32.9,31.15,SSW,211,0.0,0.0,65,0.00,,---,0.01,VWS V14.01,2013-01-25 02:41:00,
2013-01-24 18:46:00,43.9,32.9,31.15,SSW,202,0.0,0.0,65,0.00,,---,0.01,VWS V14.01,2013-01-25 02:46:00,
2013-01-24 18:51:00,43.8,32.8,31.15,SSW,213,0.0,0.0,65,0.00,,---,0.01,VWS V14.01,2013-01-25 02:51:00,
2013-01-24 18:56:00,43.8,32.8,31.15,SW,229,0.0,0.0,65,0.00,,---,0.01,VWS V14.01,2013-01-25 02:56:00,
2013-01-24 19:01:00,43.8,33.2,31.15,SSW,204,0.0,0.0,66,0.00,,---,0.01,VWS V14.01,2013-01-25 03:01:00,
2013-01-24 19:07:00,43.6,33.0,31.15,SSW,192,0.0,0.0,66,0.00,,---,0.01,VWS V14.01,2013-01-25 03:07:00,
2013-01-24 19:12:00,43.5,32.9,31.15,SSW,202,0.0,0.0,66,0.00,,---,0.01,VWS V14.01,2013-01-25 03:12:00,
2013-01-24 19:17:00,43.3,33.1,31.15,SSW,209,0.0,0.0,67,0.00,,---,0.01,VWS V14.01,2013-01-25 03:17:00,
2013-01-24 19:22:00,43.3,33.5,31.15,SW,225,0.0,0.0,68,0.00,,---,0.01,VWS V14.01,2013-01-25 03:22:00,
2013-01-24 19:27:00,43.2,33.4,31.15,SSW,204,0.0,0.0,68,0.00,,---,0.01,VWS V14.01,2013-01-25 03:27:00,
2013-01-24 19:32:00,43.1,33.6,31.15,SW,219,0.0,0.0,69,0.00,,---,0.01,VWS V14.01,2013-01-25 03:32:00,
2013-01-24 19:37:00,42.9,33.4,31.15,SW,236,0.0,0.0,69,0.00,,---,0.01,VWS V14.01,2013-01-25 03:37:00,
2013-01-24 19:42:00,42.8,33.7,31.15,South,189,0.0,0.0,70,0.00,,---,0.01,VWS V14.01,2013-01-25 03:42:00,
2013-01-24 19:47:00,42.6,33.5,31.15,SSW,200,0.0,0.0,70,0.00,,---,0.01,VWS V14.01,2013-01-25 03:47:00,
2013-01-24 19:52:00,42.5,33.4,31.15,SW,215,0.0,0.0,70,0.00,,---,0.01,VWS V14.01,2013-01-25 03:52:00,
2013-01-24 19:57:00,42.3,33.2,31.14,SSW,203,0.0,0.0,70,0.00,,---,0.01,VWS V14.01,2013-01-25 03:57:00,
2013-01-24 20:02:00,42.2,33.1,31.14,SW,227,0.0,0.0,70,0.00,,---,0.01,VWS V14.01,2013-01-25 04:02:00,
2013-01-24 20:07:00,42.1,33.4,31.15,South,180,0.0,0.0,71,0.00,,---,0.01,VWS V14.01,2013-01-25 04:07:00,
2013-01-24 20:13:00,41.9,33.2,31.15,SW,217,0.0,0.0,71,0.00,,---,0.01,VWS V14.01,2013-01-25 04:13:00,
2013-01-24 20:18:00,41.8,33.1,31.15,SSW,197,0.0,0.0,71,0.00,,---,0.01,VWS V14.01,2013-01-25 04:18:00,
2013-01-24 20:23:00,41.8,33.1,31.15,SSW,196,0.0,0.0,71,0.00,,---,0.01,VWS V14.01,2013-01-25 04:23:00,
2013-01-24 20:28:00,41.6,33.3,31.15,SSW,198,0.0,0.0,72,0.00,,---,0.01,VWS V14.01,2013-01-25 04:28:00,
2013-01-24 20:33:00,41.5,33.2,31.15,SW,222,0.0,0.0,72,0.00,,---,0.01,VWS V14.01,2013-01-25 04:33:00,
2013-01-24 20:38:00,41.3,33.0,31.15,SW,225,0.0,0.0,72,0.00,,---,0.01,VWS V14.01,2013-01-25 04:38:00,
2013-01-24 20:43:00,41.2,32.9,31.15,SSE,157,0.0,0.0,72,0.00,,---,0.01,VWS V14.01,2013-01-25 04:43:00,
2013-01-24 20:48:00,41.2,33.2,31.15,SSW,197,0.0,0.0,73,0.00,,---,0.01,VWS V14.01,2013-01-25 04:48:00,
2013-01-24 20:53:00,41.1,33.1,31.15,SSW,194,0.0,0.0,73,0.00,,---,0.01,VWS V14.01,2013-01-25 04:53:00,
2013-01-24 20:58:00,41.1,33.1,31.15,SSW,194,0.0,0.0,73,0.00,,---,0.01,VWS V14.01,2013-01-25 04:58:00,
2013-01-24 21:00:00,41.1,33.1,31.15,SW,216,0.0,0.0,73,0.00,,---,0.01,VWS V14.01,2013-01-25 05:00:00,
2013-01-24 21:02:00,40.9,32.9,31.15,South,189,0.0,0.0,73,0.00,,---,0.01,VWS V14.01,2013-01-25 05:02:00,
2013-01-24 21:03:00,40.9,32.9,31.15,South,189,0.0,0.0,73,0.00,,---,0.01,VWS V14.01,2013-01-25 05:03:00,
2013-01-24 21:08:00,40.9,33.3,31.16,SSW,198,0.0,0.0,74,0.00,,---,0.01,VWS V14.01,2013-01-25 05:08:00,
2013-01-24 21:13:00,40.9,33.3,31.16,South,186,0.0,0.0,74,0.00,,---,0.01,VWS V14.01,2013-01-25 05:13:00,
2013-01-24 21:18:00,40.8,33.2,31.16,SSW,204,0.0,0.0,74,0.00,,---,0.01,VWS V14.01,2013-01-25 05:18:00,
2013-01-24 21:23:00,40.8,33.2,31.16,SSE,164,0.0,0.0,74,0.00,,---,0.01,VWS V14.01,2013-01-25 05:23:00,
2013-01-24 21:29:00,40.8,33.2,31.16,South,188,0.0,0.0,74,0.00,,---,0.01,VWS V14.01,2013-01-25 05:29:00,
2013-01-24 21:33:00,40.8,33.2,31.16,SSW,192,0.0,0.0,74,0.00,,---,0.01,VWS V14.01,2013-01-25 05:33:00,
2013-01-24 21:39:00,40.6,33.3,31.16,SSW,204,0.0,0.0,75,0.00,,---,0.01,VWS V14.01,2013-01-25 05:39:00,
2013-01-24 21:44:00,40.6,33.3,31.16,SSW,199,0.0,0.0,75,0.00,,---,0.01,VWS V14.01,2013-01-25 05:44:00,
2013-01-24 21:49:00,40.6,33.3,31.16,SSW,209,0.0,0.0,75,0.00,,---,0.01,VWS V14.01,2013-01-25 05:49:00,
2013-01-24 21:54:00,40.5,33.2,31.16,South,188,0.0,0.0,75,0.00,,---,0.01,VWS V14.01,2013-01-25 05:54:00,
2013-01-24 21:59:00,40.5,33.5,31.16,SSW,209,0.0,0.0,76,0.00,,---,0.01,VWS V14.01,2013-01-25 05:59:00,
2013-01-24 22:04:00,40.3,33.3,31.15,SSW,209,0.0,0.0,76,0.00,,---,0.01,VWS V14.01,2013-01-25 06:04:00,
2013-01-24 22:09:00,40.2,33.2,31.17,South,184,0.0,0.0,76,0.00,,---,0.01,VWS V14.01,2013-01-25 06:09:00,
2013-01-24 22:14:00,40.2,33.2,31.17,SSW,201,0.0,0.0,76,0.00,,---,0.01,VWS V14.01,2013-01-25 06:14:00,
2013-01-24 22:19:00,40.3,33.3,31.17,SSW,200,0.0,0.0,76,0.00,,---,0.01,VWS V14.01,2013-01-25 06:19:00,
2013-01-24 22:24:00,40.3,33.3,31.17,SSW,201,0.0,0.0,76,0.00,,---,0.01,VWS V14.01,2013-01-25 06:24:00,
2013-01-24 22:29:00,40.3,33.7,31.17,South,188,0.0,0.0,77,0.00,,---,0.01,VWS V14.01,2013-01-25 06:29:00,
2013-01-24 22:35:00,40.3,33.3,31.17,SSW,197,0.0,0.0,76,0.00,,---,0.01,VWS V14.01,2013-01-25 06:35:00,
2013-01-24 22:40:00,40.3,33.7,31.17,South,191,0.0,0.0,77,0.00,,---,0.01,VWS V14.01,2013-01-25 06:40:00,
2013-01-24 22:45:00,40.3,33.7,31.17,South,184,0.0,0.0,77,0.00,,---,0.01,VWS V14.01,2013-01-25 06:45:00,
2013-01-24 22:50:00,40.2,33.6,31.17,SSW,211,0.0,0.0,77,0.00,,---,0.01,VWS V14.01,2013-01-25 06:50:00,
2013-01-24 22:55:00,40.2,33.6,31.17,South,176,0.0,0.0,77,0.00,,---,0.01,VWS V14.01,2013-01-25 06:55:00,
2013-01-24 23:00:00,40.2,33.6,31.17,SW,215,0.0,0.0,77,0.00,,---,0.01,VWS V14.01,2013-01-25 07:00:00,
2013-01-24 23:05:00,40.2,33.6,31.19,SSW,211,0.0,0.0,77,0.00,,---,0.01,VWS V14.01,2013-01-25 07:05:00,
2013-01-24 23:10:00,40.2,33.6,31.19,South,188,0.0,0.0,77,0.00,,---,0.01,VWS V14.01,2013-01-25 07:10:00,
2013-01-24 23:16:00,40.3,33.7,31.19,SSW,199,0.0,0.0,77,0.00,,---,0.01,VWS V14.01,2013-01-25 07:16:00,
2013-01-24 23:21:00,40.2,33.6,31.19,SSW,193,0.0,0.0,77,0.00,,---,0.01,VWS V14.01,2013-01-25 07:21:00,
2013-01-24 23:26:00,40.2,33.6,31.19,SW,234,0.0,0.0,77,0.00,,---,0.01,VWS V14.01,2013-01-25 07:26:00,
2013-01-24 23:31:00,40.2,33.6,31.19,SSW,197,0.0,0.0,77,0.00,,---,0.01,VWS V14.01,2013-01-25 07:31:00,
2013-01-24 23:36:00,40.2,33.6,31.19,SSW,202,0.0,0.0,77,0.00,,---,0.01,VWS V14.01,2013-01-25 07:36:00,
2013-01-24 23:41:00,40.2,33.6,31.19,SSW,206,0.0,0.0,77,0.00,,---,0.01,VWS V14.01,2013-01-25 07:41:00,
2013-01-24 23:47:00,40.3,33.3,31.19,SSW,200,0.0,0.0,76,0.00,,---,0.01,VWS V14.01,2013-01-25 07:47:00,
2013-01-24 23:52:00,40.3,33.3,31.19,SSW,198,0.0,0.0,76,0.00,,---,0.01,VWS V14.01,2013-01-25 07:52:00,
2013-01-24 23:57:00,40.3,33.0,31.19,SW,218,0.0,0.0,75,0.00,,---,0.01,VWS V14.01,2013-01-25 07:57:00,